Time;durP1;ratioP1;P1;durP2;ratioP2;P2;SDS_P1;SDS_P2;PMS_P1;PMS_P2;Temp;Humidity;BMP_temperature;BMP_pressure;BME280_temperature;BME280_humidity;BME280_pressure;Samples;Min_cycle;Max_cycle;Signal;HPM_P1;HPM_P2
2022/11/06 00:00:14;;;;;;;191.83;90.50;;;;;;;-141.97;76.99;47680.53;4975127;28;20172;-81
2022/11/06 00:02:39;;;;;;;202.50;91.53;;;;;;;-141.97;76.78;47676.69;4975105;28;20449;-80
2022/11/06 00:07:49;;;;;;;183.53;85.10;;;;;;;-141.97;75.82;47690.16;4975072;28;20674;-81
2022/11/06 00:10:16;;;;;;;164.17;79.43;;;;;;;-141.97;76.11;47678.63;4975354;28;20274;-81
2022/11/06 00:12:42;;;;;;;165.73;76.67;;;;;;;-141.97;76.05;47669.00;4975114;28;20625;-80
2022/11/06 00:15:08;;;;;;;157.23;72.20;;;;;;;-141.97;76.01;47692.06;4974915;28;20184;-81
2022/11/06 00:17:33;;;;;;;157.60;69.27;;;;;;;-141.97;76.07;47672.84;4974822;28;20184;-82
2022/11/06 00:19:58;;;;;;;149.20;71.23;;;;;;;-141.97;75.86;47674.78;4975186;28;20242;-81
2022/11/06 00:22:24;;;;;;;173.10;81.90;;;;;;;-141.97;76.46;47670.91;5067505;28;20275;-81
2022/11/06 00:24:49;;;;;;;170.73;81.93;;;;;;;-141.97;76.93;47715.13;5075965;28;20250;-81
2022/11/06 00:27:15;;;;;;;251.60;117.27;;;;;;;-141.97;77.29;47638.25;5076023;28;20176;-81
2022/11/06 00:29:41;;;;;;;266.13;122.13;;;;;;;-141.97;77.58;47672.84;5075371;28;20180;-81
2022/11/06 00:32:06;;;;;;;245.60;116.07;;;;;;;-141.97;77.57;47605.56;5075665;28;20187;-80
2022/11/06 00:34:32;;;;;;;236.33;110.30;;;;;;;-141.97;77.70;47674.78;5075635;28;20612;-81
2022/11/06 00:36:57;;;;;;;240.37;112.20;;;;;;;-141.97;78.26;47649.78;5075780;28;20192;-82
2022/11/06 00:39:23;;;;;;;277.13;127.30;;;;;;;-141.97;78.74;47688.22;5076008;28;20617;-81
2022/11/06 00:41:48;;;;;;;529.13;277.77;;;;;;;-141.97;78.19;47647.84;5075867;28;20754;-82
2022/11/06 00:44:13;;;;;;;560.13;298.47;;;;;;;-141.97;77.65;47659.38;5075225;28;20196;-82
2022/11/06 00:46:39;;;;;;;383.80;174.10;;;;;;;-141.97;77.60;47653.63;5075298;28;20192;-82
2022/11/06 00:49:04;;;;;;;338.87;152.77;;;;;;;-141.97;77.12;47703.59;5075802;28;20297;-82
2022/11/06 00:51:34;;;;;;;283.33;128.23;;;;;;;-141.97;77.12;47653.63;5055785;28;20165;-82
2022/11/06 00:54:06;;;;;;;394.33;180.27;;;;;;;-141.97;77.55;47678.63;5073794;28;20157;-81
2022/11/06 00:56:32;;;;;;;480.30;238.33;;;;;;;-141.97;77.83;47674.78;5075648;28;20191;-81
2022/11/06 00:58:59;;;;;;;533.50;277.00;;;;;;;-141.97;78.07;47680.53;5075613;28;20153;-81
2022/11/06 01:01:37;;;;;;;435.07;200.00;;;;;;;-141.97;77.95;47657.47;5075445;28;20171;-81
2022/11/06 01:04:09;;;;;;;324.23;140.77;;;;;;;-141.97;78.39;47653.63;5074980;28;20206;-81
2022/11/06 01:06:37;;;;;;;289.53;130.00;;;;;;;-141.97;79.04;47680.53;5075092;28;20172;-81
2022/11/06 01:09:03;;;;;;;282.53;126.73;;;;;;;-141.97;78.57;47665.16;5075497;28;20157;-82
2022/11/06 01:11:32;;;;;;;243.77;114.27;;;;;;;-141.97;78.91;47686.31;5075681;28;20153;-82
2022/11/06 01:14:00;;;;;;;253.17;117.87;;;;;;;-141.97;79.50;47672.84;5075511;28;20165;-82
2022/11/06 01:16:26;;;;;;;231.10;105.10;;;;;;;-141.97;79.35;47703.59;5075294;28;20644;-82
2022/11/06 01:18:53;;;;;;;183.33;86.70;;;;;;;-141.97;79.89;47680.53;5075519;28;20222;-81
2022/11/06 01:21:21;;;;;;;186.90;82.10;;;;;;;-141.97;80.77;47676.69;5057145;28;20181;-81
2022/11/06 01:23:52;;;;;;;175.00;72.47;;;;;;;-141.97;82.25;47663.22;5074729;28;20751;-82
2022/11/06 01:26:17;;;;;;;176.63;79.70;;;;;;;-141.97;82.35;47663.22;5074982;28;20164;-81
2022/11/06 01:28:42;;;;;;;181.20;81.97;;;;;;;-141.97;83.69;47736.28;5075165;28;20592;-82
2022/11/06 01:31:12;;;;;;;181.63;81.93;;;;;;;-141.97;84.73;47697.84;5074602;28;20169;-81
2022/11/06 01:33:38;;;;;;;201.23;82.87;;;;;;;-141.97;84.46;47676.69;5074759;28;20179;-82
2022/11/06 01:36:04;;;;;;;184.07;84.80;;;;;;;-141.97;83.68;47634.41;5078471;28;20208;-82
2022/11/06 01:38:29;;;;;;;183.03;81.37;;;;;;;-141.97;82.96;47669.00;5059191;28;20173;-82
2022/11/06 01:40:55;;;;;;;301.57;123.27;;;;;;;-141.97;82.54;47669.00;5074697;28;20229;-82
2022/11/06 01:43:44;;;;;;;382.40;146.10;;;;;;;-141.97;81.27;47651.69;5074475;28;20735;-82
2022/11/06 01:46:09;;;;;;;395.03;149.20;;;;;;;-141.97;80.53;47707.44;5073969;28;20187;-82
2022/11/06 01:48:37;;;;;;;293.37;114.00;;;;;;;-141.97;80.38;47811.25;5074622;28;20173;-82
2022/11/06 01:51:02;;;;;;;328.87;126.47;;;;;;;-141.97;80.52;47657.47;5074836;28;20647;-82
2022/11/06 01:53:29;;;;;;;259.17;101.33;;;;;;;-141.97;79.98;47709.38;5074048;28;20171;-81
2022/11/06 01:56:00;;;;;;;268.90;106.03;;;;;;;-141.97;80.47;47620.94;5074344;28;20180;-82
2022/11/06 01:58:28;;;;;;;326.13;127.63;;;;;;;-141.97;79.78;47659.38;5074438;28;20184;-80
2022/11/06 02:00:54;;;;;;;260.37;104.07;;;;;;;-141.97;80.59;47676.69;5074522;28;20178;-82
2022/11/06 02:03:19;;;;;;;229.17;97.60;;;;;;;-141.97;80.06;47622.88;5073791;28;20173;-82
2022/11/06 02:05:45;;;;;;;214.83;91.50;;;;;;;-141.97;80.11;47697.84;5073494;28;20196;-82
2022/11/06 02:08:14;;;;;;;194.27;83.50;;;;;;;-141.97;79.53;47676.69;5073933;28;20565;-81
2022/11/06 02:10:41;;;;;;;196.67;86.90;;;;;;;-141.97;80.18;47705.53;5074017;28;20222;-81
2022/11/06 02:13:12;;;;;;;292.97;110.80;;;;;;;-141.97;79.38;47680.53;5073838;28;20232;-82
2022/11/06 02:15:37;;;;;;;334.70;122.47;;;;;;;-141.97;78.58;47655.53;5073693;28;20165;-82
2022/11/06 02:18:03;;;;;;;379.33;140.37;;;;;;;-141.97;78.63;47649.78;5074240;28;20221;-82
2022/11/06 02:20:45;;;;;;;305.87;115.90;;;;;;;-141.97;79.20;47636.31;5073730;28;20186;-83
2022/11/06 02:23:36;;;;;;;224.67;93.33;;;;;;;-141.97;78.98;47651.69;5073448;28;20644;-82
2022/11/06 02:26:27;;;;;;;220.20;90.97;;;;;;;-141.97;78.71;47717.06;5073733;28;20259;-80
2022/11/06 02:29:07;;;;;;;248.23;97.03;;;;;;;-141.97;78.45;47699.75;5073803;28;20161;-80
2022/11/06 02:31:36;;;;;;;364.57;132.37;;;;;;;-141.97;78.33;47630.56;5073515;28;20202;-81
2022/11/06 02:34:10;;;;;;;392.17;142.70;;;;;;;-141.97;78.80;47649.78;5073164;28;20169;-80
2022/11/06 02:36:42;;;;;;;369.83;136.17;;;;;;;-141.97;79.03;47667.06;5073492;28;20687;-80
2022/11/06 02:39:13;;;;;;;280.40;109.67;;;;;;;-141.97;78.97;47630.56;5073878;28;20172;-80
2022/11/06 02:41:43;;;;;;;274.23;108.07;;;;;;;-141.97;79.49;47703.59;5073964;28;20165;-81
2022/11/06 02:44:13;;;;;;;349.20;126.73;;;;;;;-141.97;78.78;47676.69;5073043;28;20200;-81
2022/11/06 02:46:48;;;;;;;370.97;140.03;;;;;;;-141.97;78.59;47680.53;5073609;28;20199;-80
2022/11/06 02:49:20;;;;;;;366.60;134.23;;;;;;;-141.97;79.16;47705.53;5073182;28;20171;-82
2022/11/06 02:51:52;;;;;;;336.47;126.93;;;;;;;-141.97;79.49;47694.00;5074233;28;20172;-82
2022/11/06 02:54:20;;;;;;;343.37;125.57;;;;;;;-141.97;79.27;47680.53;5058414;28;20232;-82
2022/11/06 02:56:51;;;;;;;344.03;126.83;;;;;;;-141.97;79.78;47619.03;5076010;28;20173;-81
2022/11/06 02:59:25;;;;;;;337.77;127.37;;;;;;;-141.97;79.45;47642.09;5053864;28;20169;-81
2022/11/06 03:01:57;;;;;;;324.97;126.97;;;;;;;-141.97;78.76;47695.91;5056738;28;20161;-80
2022/11/06 03:04:22;;;;;;;320.40;125.10;;;;;;;-141.97;78.57;47703.59;5075628;28;20196;-81
2022/11/06 03:06:53;;;;;;;321.10;123.60;;;;;;;-141.97;78.73;47692.06;5055137;28;20612;-81
2022/11/06 03:09:24;;;;;;;315.97;126.33;;;;;;;-141.97;78.50;47638.25;5072929;28;20247;-81
2022/11/06 03:12:04;;;;;;;322.20;123.73;;;;;;;-141.97;78.09;47703.59;5073125;28;20164;-82
2022/11/06 03:14:41;;;;;;;303.93;116.10;;;;;;;-141.97;79.15;47651.69;5056835;28;20223;-80
2022/11/06 03:17:37;;;;;;;269.30;108.23;;;;;;;-141.97;79.07;47674.78;5072781;28;20165;-81
2022/11/06 03:20:20;;;;;;;236.00;97.93;;;;;;;-141.97;79.81;47661.31;5072616;28;20243;-81
2022/11/06 03:22:45;;;;;;;220.63;92.33;;;;;;;-141.97;79.49;47661.31;5072296;28;20173;-81
2022/11/06 03:25:17;;;;;;;234.30;94.97;;;;;;;-141.97;80.11;47661.31;5072900;28;20203;-81
2022/11/06 03:28:07;;;;;;;219.33;89.80;;;;;;;-141.97;79.98;47678.63;5073210;28;20163;-81
2022/11/06 03:30:41;;;;;;;238.70;99.97;;;;;;;-141.97;80.02;47619.03;5071013;28;20181;-82
2022/11/06 03:33:20;;;;;;;200.37;85.27;;;;;;;-141.97;80.39;47678.63;5072748;28;20184;-81
2022/11/06 03:35:50;;;;;;;206.43;86.07;;;;;;;-141.97;80.89;47711.28;5072685;28;20224;-81
2022/11/06 03:38:23;;;;;;;212.10;90.50;;;;;;;-141.97;80.27;47651.69;5056357;28;20240;-81
2022/11/06 03:40:54;;;;;;;192.63;82.20;;;;;;;-141.97;80.05;47707.44;5075936;28;20167;-82
2022/11/06 03:43:25;;;;;;;180.87;77.33;;;;;;;-141.97;80.45;47626.72;5073025;28;20557;-82
2022/11/06 03:45:52;;;;;;;170.77;76.47;;;;;;;-141.97;80.74;47670.91;5068820;28;20250;-82
2022/11/06 03:48:23;;;;;;;180.07;73.30;;;;;;;-141.97;81.66;47667.06;5072657;28;20192;-82
2022/11/06 03:51:00;;;;;;;166.03;71.00;;;;;;;-141.97;81.67;47657.47;5072813;28;20202;-81
2022/11/06 03:53:30;;;;;;;162.27;72.83;;;;;;;-141.97;82.39;47676.69;5072221;28;20176;-81
2022/11/06 03:56:03;;;;;;;169.57;74.30;;;;;;;-141.97;82.74;47684.38;5072169;28;20627;-81
2022/11/06 03:58:32;;;;;;;169.07;76.70;;;;;;;-141.97;82.72;47622.88;5072161;28;20188;-82
2022/11/06 04:01:01;;;;;;;167.20;74.73;;;;;;;-141.97;82.60;47669.00;5072710;28;20172;-81
2022/11/06 04:03:33;;;;;;;160.97;73.17;;;;;;;-141.97;82.55;47692.06;5072166;28;20180;-82
2022/11/06 04:06:11;;;;;;;158.43;72.03;;;;;;;-141.97;82.03;47676.69;5072280;28;20181;-82
2022/11/06 04:14:14;;;;;;;169.97;76.77;;;;;;;-141.97;82.34;47663.22;5071864;28;20286;-82
2022/11/06 04:16:50;;;;;;;214.03;97.17;;;;;;;-141.97;81.60;47661.31;5072882;28;20219;-82
2022/11/06 04:19:20;;;;;;;242.00;104.17;;;;;;;-141.97;80.72;47651.69;5072730;28;20540;-82
2022/11/06 04:21:54;;;;;;;177.97;80.03;;;;;;;-141.97;79.00;47665.16;5072808;28;20260;-81
2022/11/06 04:27:36;;;;;;;157.10;69.80;;;;;;;-141.97;79.20;47669.00;5072627;28;20171;-81
2022/11/06 04:30:11;;;;;;;165.70;72.13;;;;;;;-141.97;79.59;47657.47;5076223;28;20196;-81
2022/11/06 04:33:11;;;;;;;162.93;69.87;;;;;;;-141.97;79.54;47684.38;5075912;28;20286;-81
2022/11/06 04:35:39;;;;;;;162.33;72.03;;;;;;;-141.97;80.60;47651.69;5075433;28;20305;-81
2022/11/06 04:38:14;;;;;;;166.90;72.07;;;;;;;-141.97;81.00;47657.47;5075689;28;20613;-81
2022/11/06 04:40:44;;;;;;;165.13;72.63;;;;;;;-141.97;81.40;47684.38;5075749;28;20498;-81
2022/11/06 04:43:39;;;;;;;160.93;70.60;;;;;;;-141.97;82.02;47676.69;5075499;28;20223;-81
2022/11/06 04:46:10;;;;;;;165.77;69.43;;;;;;;-141.97;81.11;47695.91;5075762;28;20247;-81
2022/11/06 04:48:37;;;;;;;160.17;70.90;;;;;;;-141.97;81.09;47661.31;5075564;28;20171;-81
2022/11/06 04:51:06;;;;;;;164.57;72.77;;;;;;;-141.97;81.83;47678.63;5075456;28;20169;-80
2022/11/06 04:53:34;;;;;;;159.43;74.67;;;;;;;-141.97;83.00;47663.22;5075443;28;20171;-80
2022/11/06 04:56:05;;;;;;;218.70;93.43;;;;;;;-141.97;83.02;47692.06;5075527;28;20173;-81
2022/11/06 04:58:31;;;;;;;240.00;105.37;;;;;;;-141.97;84.46;47684.38;5075281;28;20611;-79
2022/11/06 05:00:56;;;;;;;323.63;161.77;;;;;;;-141.97;84.36;47718.97;5057485;28;20199;-78
2022/11/06 05:03:21;;;;;;;295.97;130.77;;;;;;;-141.97;83.93;47690.16;5075174;28;20161;-80
2022/11/06 05:05:47;;;;;;;260.40;114.83;;;;;;;-141.97;83.46;47665.16;5075069;28;20280;-80
2022/11/06 05:08:15;;;;;;;228.23;100.47;;;;;;;-141.97;83.25;47665.16;5075338;28;20168;-83
2022/11/06 05:10:41;;;;;;;251.50;114.33;;;;;;;-141.97;82.65;47699.75;5075031;28;20216;-82
2022/11/06 05:13:07;;;;;;;242.30;106.80;;;;;;;-141.97;82.95;47674.78;5075312;28;20227;-81
2022/11/06 05:15:32;;;;;;;219.20;96.00;;;;;;;-141.97;82.90;47688.22;5056942;28;20609;-81
2022/11/06 05:17:58;;;;;;;213.53;95.93;;;;;;;-141.97;83.16;47730.50;5075416;28;20161;-81
2022/11/06 05:20:24;;;;;;;206.47;98.33;;;;;;;-141.97;82.73;47711.28;5075290;28;20165;-81
2022/11/06 05:22:59;;;;;;;193.60;86.57;;;;;;;-141.97;82.43;47699.75;5075113;28;20169;-82
2022/11/06 05:25:42;;;;;;;192.10;88.53;;;;;;;-141.97;82.33;47638.25;5075323;28;20587;-81
2022/11/06 05:28:08;;;;;;;192.00;87.77;;;;;;;-141.97;82.89;47793.94;5075028;28;20161;-81
2022/11/06 05:30:35;;;;;;;206.07;92.20;;;;;;;-141.97;82.18;47705.53;5075149;28;20686;-81
2022/11/06 05:33:00;;;;;;;190.50;87.50;;;;;;;-141.97;82.62;47782.41;5056579;28;20189;-83
2022/11/06 05:35:26;;;;;;;187.73;85.87;;;;;;;-141.97;82.98;47663.22;5075153;28;20829;-83
2022/11/06 05:37:58;;;;;;;188.20;87.37;;;;;;;-141.97;82.90;47751.66;5078461;28;20202;-82
2022/11/06 05:40:23;;;;;;;186.73;83.50;;;;;;;-141.97;82.64;47709.38;5076162;28;20171;-82
2022/11/06 05:42:48;;;;;;;178.37;80.90;;;;;;;-141.97;82.27;47699.75;5074900;28;20542;-83
2022/11/06 05:45:14;;;;;;;181.17;82.03;;;;;;;-141.97;82.49;47620.94;5075233;28;20212;-82
2022/11/06 05:47:40;;;;;;;184.47;83.43;;;;;;;-141.97;82.50;47699.75;5057125;28;20175;-82
2022/11/06 05:50:06;;;;;;;173.43;83.93;;;;;;;-141.97;82.12;47667.06;5074674;28;20160;-82
2022/11/06 05:52:33;;;;;;;188.63;86.50;;;;;;;-141.97;82.09;47692.06;5074387;28;20169;-83
2022/11/06 05:54:59;;;;;;;175.83;84.50;;;;;;;-141.97;82.04;47707.44;5074353;28;20160;-81
2022/11/06 05:57:24;;;;;;;172.20;82.03;;;;;;;-141.97;82.62;47692.06;5073036;28;20163;-81
2022/11/06 05:59:50;;;;;;;170.00;77.77;;;;;;;-141.97;82.61;47695.91;5074361;28;20546;-82
2022/11/06 06:02:15;;;;;;;165.57;74.57;;;;;;;-141.97;82.71;47686.31;5074186;28;20243;-82
2022/11/06 06:04:40;;;;;;;157.97;71.87;;;;;;;-141.97;82.67;47707.44;5074204;28;20185;-82
2022/11/06 06:07:06;;;;;;;154.80;70.83;;;;;;;-141.97;82.92;47688.22;5074371;28;20168;-82
2022/11/06 06:09:31;;;;;;;151.63;69.30;;;;;;;-141.97;82.29;47669.00;5074212;28;20168;-82
2022/11/06 06:11:56;;;;;;;148.73;68.53;;;;;;;-141.97;82.66;47684.38;5074158;28;20727;-80
2022/11/06 06:14:22;;;;;;;144.10;65.90;;;;;;;-141.97;83.09;47715.13;5074153;28;20161;-83
2022/11/06 06:16:48;;;;;;;156.17;70.90;;;;;;;-141.97;85.19;47636.31;5075395;28;20249;-82
2022/11/06 06:19:13;;;;;;;148.73;71.17;;;;;;;-141.97;84.94;47667.06;5074965;28;20161;-81
2022/11/06 06:21:39;;;;;;;144.40;69.10;;;;;;;-141.97;84.63;47694.00;5073660;28;20547;-81
2022/11/06 06:24:05;;;;;;;140.03;68.03;;;;;;;-141.97;83.45;47669.00;5056000;28;20656;-82
2022/11/06 06:26:31;;;;;;;182.33;85.17;;;;;;;-141.97;82.99;47713.22;5073715;28;20161;-82
2022/11/06 06:28:56;;;;;;;162.47;73.90;;;;;;;-141.97;81.80;47686.31;5072506;28;20179;-82
2022/11/06 06:31:22;;;;;;;153.37;71.87;;;;;;;-141.97;81.46;47684.38;5055366;28;20169;-82
2022/11/06 06:33:48;;;;;;;139.47;66.07;;;;;;;-141.97;80.82;47692.06;5073400;28;20161;-81
2022/11/06 06:36:13;;;;;;;128.67;62.63;;;;;;;-141.97;80.13;47653.63;5073181;28;20254;-82
2022/11/06 06:38:39;;;;;;;129.63;60.40;;;;;;;-141.97;80.12;47709.38;5073268;28;20740;-81
2022/11/06 06:41:07;;;;;;;128.20;59.40;;;;;;;-141.97;80.13;47665.16;5073334;28;20252;-81
2022/11/06 06:43:33;;;;;;;134.23;60.43;;;;;;;-141.97;80.21;47699.75;5055047;28;20165;-81
2022/11/06 06:46:00;;;;;;;135.23;61.43;;;;;;;-141.97;80.24;47715.13;5055137;28;20200;-81
2022/11/06 06:48:26;;;;;;;135.97;63.40;;;;;;;-141.97;80.58;47688.22;5055141;28;20579;-82
2022/11/06 06:50:55;;;;;;;131.37;61.97;;;;;;;-141.97;80.38;47745.88;5073805;28;20192;-81
2022/11/06 06:53:21;;;;;;;131.13;61.87;;;;;;;-141.97;80.42;47669.00;5055701;28;20218;-81
2022/11/06 06:55:46;;;;;;;130.43;62.07;;;;;;;-141.97;80.59;47697.84;5073746;28;20180;-81
2022/11/06 06:58:11;;;;;;;128.70;60.30;;;;;;;-141.97;79.99;47676.69;5073247;28;20219;-81
2022/11/06 07:00:37;;;;;;;126.93;57.83;;;;;;;-141.97;79.39;47674.78;5073095;28;20169;-81
2022/11/06 07:03:02;;;;;;;130.20;58.63;;;;;;;-141.97;78.45;47711.28;5072899;28;20255;-82
2022/11/06 07:05:28;;;;;;;125.80;58.10;;;;;;;-141.97;78.61;47713.22;5073156;28;20237;-80
2022/11/06 07:07:53;;;;;;;126.83;59.90;;;;;;;-141.97;79.32;47682.47;5073342;28;20172;-80
2022/11/06 07:10:18;;;;;;;126.23;57.97;;;;;;;-141.97;79.24;47676.69;5073568;28;20176;-83
2022/11/06 07:12:44;;;;;;;132.23;59.77;;;;;;;-141.97;79.66;47697.84;5073380;28;20177;-83
2022/11/06 07:15:10;;;;;;;131.73;60.73;;;;;;;-141.97;80.37;47703.59;5073993;28;20180;-83
2022/11/06 07:17:35;;;;;;;128.53;57.67;;;;;;;-141.97;80.75;47809.31;5073919;28;20591;-82
2022/11/06 07:20:01;;;;;;;129.33;61.17;;;;;;;-141.97;80.85;47697.84;5071787;28;20331;-83
2022/11/06 07:22:27;;;;;;;139.87;67.10;;;;;;;-141.97;79.74;47688.22;5073119;28;20247;-83
2022/11/06 07:24:52;;;;;;;124.00;56.87;;;;;;;-141.97;78.59;47680.53;5074377;28;20563;-82
2022/11/06 07:27:18;;;;;;;112.93;54.73;;;;;;;-141.97;77.63;47542.16;5077429;28;20167;-82
2022/11/06 07:29:43;;;;;;;117.03;56.50;;;;;;;-141.97;77.08;47647.84;5075477;28;20576;-84
2022/11/06 07:32:08;;;;;;;113.90;55.20;;;;;;;-141.97;77.00;47617.09;5074417;28;20625;-82
2022/11/06 07:34:37;;;;;;;94.97;49.00;;;;;;;-141.97;76.64;47707.44;5074462;28;20319;-83
2022/11/06 07:37:04;;;;;;;108.53;51.57;;;;;;;-141.97;75.75;47709.38;5073966;28;20191;-81
2022/11/06 07:39:30;;;;;;;103.93;50.40;;;;;;;-141.97;75.29;47682.47;5060616;28;20180;-81
2022/11/06 07:41:55;;;;;;;97.53;49.90;;;;;;;-141.97;75.48;47576.75;5076768;28;20172;-83
2022/11/06 07:44:21;;;;;;;116.70;64.57;;;;;;;-141.97;75.07;47678.63;5083552;28;20195;-82
2022/11/06 07:46:46;;;;;;;111.60;56.43;;;;;;;-141.97;74.56;47599.81;5076121;28;20180;-81
2022/11/06 07:49:12;;;;;;;110.27;56.27;;;;;;;-141.97;74.17;47622.88;5076551;28;20242;-81
2022/11/06 07:51:38;;;;;;;108.53;54.17;;;;;;;-141.97;73.59;47684.38;5079299;28;20173;-81
2022/11/06 07:54:03;;;;;;;117.53;58.07;;;;;;;-141.97;72.50;47659.38;5075530;28;20176;-81
2022/11/06 07:56:29;;;;;;;105.63;53.37;;;;;;;-141.97;73.83;47672.84;5073094;28;20249;-83
2022/11/06 07:58:54;;;;;;;105.13;54.03;;;;;;;-141.97;73.69;47797.78;5072710;28;20615;-83
2022/11/06 08:01:19;;;;;;;107.50;53.33;;;;;;;-141.97;73.02;47653.63;5073038;28;20176;-83
2022/11/06 08:03:45;;;;;;;93.30;47.30;;;;;;;-141.97;72.69;47678.63;5075257;28;20200;-83
2022/11/06 08:06:11;;;;;;;78.87;43.43;;;;;;;-141.97;72.63;47692.06;5076549;28;20613;-81
2022/11/06 08:08:36;;;;;;;81.23;44.80;;;;;;;-141.97;73.41;47669.00;5076829;28;20572;-82
2022/11/06 08:11:15;;;;;;;84.63;42.57;;;;;;;-141.97;74.60;47674.78;5076830;28;20524;-83
2022/11/06 08:13:40;;;;;;;82.93;41.63;;;;;;;-141.97;75.41;47686.31;5058700;28;20176;-83
2022/11/06 08:16:08;;;;;;;81.53;39.33;;;;;;;-141.97;77.17;47703.59;5076730;28;20152;-83
2022/11/06 08:18:34;;;;;;;82.20;38.40;;;;;;;-141.97;77.38;47676.69;5076254;28;20165;-83
2022/11/06 08:20:59;;;;;;;78.03;40.87;;;;;;;-141.97;77.06;47732.44;5076823;28;20168;-82
2022/11/06 08:23:25;;;;;;;102.57;49.20;;;;;;;-141.97;76.87;47688.22;5058741;28;20168;-83
2022/11/06 08:25:55;;;;;;;83.97;41.57;;;;;;;-141.97;76.73;47644.00;5077129;28;20245;-82
2022/11/06 08:28:22;;;;;;;84.40;41.10;;;;;;;-141.97;78.42;47722.81;5077430;28;20160;-82
2022/11/06 08:30:47;;;;;;;81.47;39.87;;;;;;;-141.97;78.60;47718.97;5058002;28;20188;-82
2022/11/06 08:33:12;;;;;;;88.03;43.87;;;;;;;-141.97;78.97;47682.47;5077082;28;20594;-82
2022/11/06 08:35:38;;;;;;;90.50;42.70;;;;;;;-141.97;78.52;47674.78;5076902;28;20224;-82
2022/11/06 08:38:03;;;;;;;84.47;45.00;;;;;;;-141.97;78.44;47707.44;5076366;28;20532;-83
2022/11/06 08:40:29;;;;;;;83.90;42.30;;;;;;;-141.97;77.41;47699.75;5075723;28;20539;-82
2022/11/06 08:43:03;;;;;;;77.67;40.73;;;;;;;-141.97;76.66;47663.22;5075731;28;20173;-83
2022/11/06 08:45:30;;;;;;;78.97;40.30;;;;;;;-141.97;76.91;47665.16;5076125;28;20195;-84
2022/11/06 08:48:00;;;;;;;77.27;40.70;;;;;;;-141.97;76.48;47649.78;5076521;28;20171;-84
2022/11/06 08:50:26;;;;;;;75.60;39.77;;;;;;;-141.97;76.42;47640.16;5075861;28;20588;-84
2022/11/06 08:52:51;;;;;;;77.10;40.50;;;;;;;-141.97;76.63;47711.28;5077117;28;20169;-84
2022/11/06 08:55:16;;;;;;;79.27;41.13;;;;;;;-141.97;76.26;47705.53;5077154;28;20218;-82
2022/11/06 08:57:42;;;;;;;81.50;40.33;;;;;;;-141.97;75.93;47795.88;5076917;28;20567;-83
2022/11/06 09:00:08;;;;;;;79.90;41.87;;;;;;;-141.97;76.20;47742.03;5076134;28;20176;-82
2022/11/06 09:02:33;;;;;;;86.93;44.13;;;;;;;-141.97;76.60;47676.69;5076008;28;20172;-84
2022/11/06 09:04:58;;;;;;;82.43;42.47;;;;;;;-141.97;78.48;47672.84;5074488;28;20644;-84
2022/11/06 09:07:24;;;;;;;94.40;47.13;;;;;;;-141.97;79.32;47669.00;5075938;28;20165;-83
2022/11/06 09:09:49;;;;;;;99.23;48.53;;;;;;;-141.97;81.25;47680.53;5074574;28;20172;-83
2022/11/06 09:12:15;;;;;;;100.07;49.13;;;;;;;-141.97;82.61;47776.63;5075498;28;20171;-84
2022/11/06 09:14:40;;;;;;;91.43;47.70;;;;;;;-141.97;84.55;47595.97;5057198;28;20175;-84
2022/11/06 09:17:05;;;;;;;99.30;49.17;;;;;;;-141.97;85.33;47692.06;5074981;28;20609;-82
2022/11/06 09:19:31;;;;;;;97.27;49.53;;;;;;;-141.97;87.58;47713.22;5073787;28;20183;-83
2022/11/06 09:21:56;;;;;;;103.80;51.13;;;;;;;-141.97;88.40;47680.53;5075573;28;20644;-83
2022/11/06 09:24:22;;;;;;;99.00;41.20;;;;;;;-141.97;89.66;47684.38;5075133;28;20192;-83
2022/11/06 09:26:47;;;;;;;83.87;43.27;;;;;;;-141.97;92.63;47692.06;5075509;28;20222;-83
2022/11/06 09:29:13;;;;;;;88.33;44.03;;;;;;;-141.97;92.72;47695.91;5074622;28;20181;-83
2022/11/06 09:31:38;;;;;;;113.30;55.63;;;;;;;-141.97;91.98;47799.72;5057390;28;20565;-83
2022/11/06 09:34:03;;;;;;;160.33;76.10;;;;;;;-141.97;91.62;47651.69;5075385;28;20564;-82
2022/11/06 09:36:29;;;;;;;125.70;61.67;;;;;;;-141.97;92.10;47692.06;5075423;28;20279;-82
2022/11/06 09:38:54;;;;;;;167.17;83.60;;;;;;;-141.97;90.74;47709.38;5075194;28;20264;-83
2022/11/06 09:41:38;;;;;;;150.53;77.53;;;;;;;-141.97;89.70;47678.63;5076127;28;20339;-83
2022/11/06 09:44:31;;;;;;;104.30;51.60;;;;;;;-141.97;89.96;47678.63;5076205;28;20197;-83
2022/11/06 09:47:01;;;;;;;115.73;56.33;;;;;;;-141.97;90.83;47742.03;5075459;28;20169;-82
2022/11/06 09:49:59;;;;;;;126.63;65.37;;;;;;;-141.97;91.86;47657.47;5073666;28;20245;-83
2022/11/06 09:52:31;;;;;;;112.37;54.33;;;;;;;-141.97;91.47;47694.00;5060374;28;20199;-83
2022/11/06 09:55:01;;;;;;;116.83;55.57;;;;;;;-141.97;92.70;47634.41;5065245;28;20252;-83
2022/11/06 09:57:34;;;;;;;115.27;56.27;;;;;;;-141.97;93.34;47713.22;5057345;28;20550;-83
2022/11/06 10:00:01;;;;;;;114.90;55.57;;;;;;;-141.97;92.50;47705.53;5075208;28;20161;-82
2022/11/06 10:02:42;;;;;;;117.93;57.03;;;;;;;-141.97;92.63;47686.31;5074547;28;20157;-83
2022/11/06 10:05:30;;;;;;;111.20;55.50;;;;;;;-141.97;91.96;47709.38;5074158;28;20279;-83
2022/11/06 10:07:59;;;;;;;106.17;52.13;;;;;;;-141.97;90.99;47707.44;5074234;28;20532;-83
2022/11/06 10:10:37;;;;;;;104.07;52.23;;;;;;;-141.97;90.39;47642.09;5074566;28;20194;-83
2022/11/06 10:13:27;;;;;;;113.47;55.53;;;;;;;-141.97;89.96;47749.72;5075016;28;20223;-83
2022/11/06 10:16:04;;;;;;;117.13;54.90;;;;;;;-141.97;89.82;47688.22;5074033;28;20165;-83
2022/11/06 10:18:42;;;;;;;111.77;51.07;;;;;;;-141.97;89.17;47828.53;5056655;28;20257;-82
2022/11/06 10:21:17;;;;;;;81.70;43.20;;;;;;;-141.97;89.88;47638.25;5080844;28;20160;-84
2022/11/06 10:23:50;;;;;;;100.97;49.13;;;;;;;-141.97;91.46;47694.00;5079006;28;20194;-84
2022/11/06 10:26:18;;;;;;;101.30;48.50;;;;;;;-141.97;91.43;47695.91;5055269;28;20208;-83
2022/11/06 10:28:52;;;;;;;91.90;47.97;;;;;;;-141.97;91.18;47718.97;5073812;28;20197;-84
2022/11/06 10:31:24;;;;;;;104.27;52.00;;;;;;;-141.97;92.21;47644.00;5076568;28;20164;-82
2022/11/06 10:34:31;;;;;;;116.57;50.90;;;;;;;-141.97;92.11;47672.84;5079643;28;20167;-82
2022/11/06 10:37:11;;;;;;;120.23;59.27;;;;;;;-141.97;93.19;47676.69;4993513;28;20238;-81
2022/11/06 10:39:36;;;;;;;100.63;48.17;;;;;;;-141.97;93.49;47709.38;4999993;28;20194;-82
2022/11/06 10:42:19;;;;;;;116.27;56.67;;;;;;;-141.97;94.44;47688.22;4994031;28;20605;-82
2022/11/06 10:45:00;;;;;;;114.83;58.53;;;;;;;-141.97;94.26;47684.38;4992893;28;20253;-83
2022/11/06 10:47:32;;;;;;;110.27;52.43;;;;;;;-141.97;94.44;47692.06;4993146;28;20215;-84
2022/11/06 10:50:01;;;;;;;136.63;67.00;;;;;;;-141.97;94.33;47634.41;4992875;28;20175;-82
2022/11/06 10:52:45;;;;;;;363.97;167.10;;;;;;;-141.97;93.51;47707.44;4992706;28;20199;-81
2022/11/06 10:55:38;;;;;;;184.03;88.43;;;;;;;-141.97;92.61;47699.75;4975405;28;20167;-82
2022/11/06 10:58:05;;;;;;;132.37;64.33;;;;;;;-141.97;93.18;47688.22;4975680;28;20195;-82
2022/11/06 11:00:32;;;;;;;104.30;50.87;;;;;;;-141.97;93.07;47872.75;4992214;28;20193;-82
2022/11/06 11:03:03;;;;;;;95.03;45.03;;;;;;;-141.97;92.90;47678.63;4993475;28;20644;-83
2022/11/06 11:05:41;;;;;;;106.03;55.13;;;;;;;-141.97;91.84;47718.97;4991637;28;20187;-83
2022/11/06 11:08:29;;;;;;;125.93;65.33;;;;;;;-141.97;90.97;47707.44;4992764;28;20200;-83
2022/11/06 11:11:25;;;;;;;102.30;53.83;;;;;;;-141.97;90.02;47663.22;4991725;28;20585;-84
2022/11/06 11:13:59;;;;;;;91.17;46.87;;;;;;;-141.97;89.58;47661.31;4987155;28;20249;-82
2022/11/06 11:16:44;;;;;;;87.20;45.43;;;;;;;-141.97;89.54;47813.16;5011399;28;20171;-82